Time,TemperatureF,DewpointF,PressureIn,WindDirection,WindDirectionDegrees,WindSpeedMPH,WindSpeedGustMPH,Humidity,HourlyPrecipIn,Conditions,Clouds,dailyrainin,SoftwareType,DateUTC
2013-02-03 00:10:00,30.6,26.1,30.05,West,267,0.0,3.0,83,0.00,,BKN055,0.00,VWS V14.00,2013-02-03 05:10:00,
2013-02-03 00:20:00,30.8,25.7,30.05,West,271,2.0,11.0,81,0.00,,BKN055,0.00,VWS V14.00,2013-02-03 05:20:00,
2013-02-03 00:30:00,30.7,25.3,30.05,West,276,0.0,10.0,80,0.00,,BKN055,0.00,VWS V14.00,2013-02-03 05:30:00,
2013-02-03 00:40:00,30.5,24.8,30.05,West,261,12.0,14.0,79,0.00,,BKN055,0.00,VWS V14.00,2013-02-03 05:40:00,
2013-02-03 00:50:00,30.4,24.7,30.04,West,275,4.0,10.0,79,0.00,,BKN055,0.00,VWS V14.00,2013-02-03 05:50:00,
2013-02-03 01:00:00,30.3,24.0,30.04,WSW,248,9.0,12.0,77,0.00,,BKN055,0.00,VWS V14.00,2013-02-03 06:00:00,
2013-02-03 01:10:00,30.1,24.1,30.04,West,273,7.0,11.0,78,0.00,,BKN055,0.00,VWS V14.00,2013-02-03 06:10:00,
2013-02-03 01:20:00,29.9,23.9,30.04,West,267,3.0,12.0,78,0.00,,BKN055,0.00,VWS V14.00,2013-02-03 06:20:00,
2013-02-03 01:30:00,29.6,23.3,30.04,WSW,248,5.0,16.0,77,0.00,,BKN055,0.00,VWS V14.00,2013-02-03 06:30:00,
2013-02-03 01:40:00,29.2,22.6,30.03,WSW,254,3.0,10.0,76,0.00,,BKN055,0.00,VWS V14.00,2013-02-03 06:40:00,
2013-02-03 01:50:00,28.8,22.5,30.03,NW,313,2.0,9.0,77,0.00,,BKN055,0.00,VWS V14.00,2013-02-03 06:50:00,
2013-02-03 02:00:00,28.4,21.8,30.03,West,278,3.0,10.0,76,0.00,,BKN055,0.00,VWS V14.00,2013-02-03 07:00:00,
2013-02-03 02:10:00,28.1,21.5,30.03,WSW,254,3.0,9.0,76,0.00,,BKN055,0.00,VWS V14.00,2013-02-03 07:10:00,
2013-02-03 02:20:00,27.8,21.5,30.02,West,273,3.0,7.0,77,0.00,,BKN055,0.00,VWS V14.00,2013-02-03 07:20:00,
2013-02-03 02:30:00,27.6,21.4,30.02,West,279,3.0,7.0,77,0.00,,BKN055,0.00,VWS V14.00,2013-02-03 07:30:00,
2013-02-03 02:40:00,27.1,20.2,30.02,West,265,4.0,14.0,75,0.00,,BKN055,0.00,VWS V14.00,2013-02-03 07:40:00,
2013-02-03 02:50:00,26.7,19.9,30.02,WSW,250,8.0,13.0,75,0.00,,BKN055,0.00,VWS V14.00,2013-02-03 07:50:00,
2013-02-03 03:00:00,26.7,19.9,30.02,West,265,3.0,9.0,75,0.00,,BKN055,0.00,VWS V14.00,2013-02-03 08:00:00,
2013-02-03 03:10:00,26.5,20.0,30.01,WSW,250,1.0,6.0,76,0.00,,BKN055,0.00,VWS V14.00,2013-02-03 08:10:00,
2013-02-03 03:20:00,26.2,20.3,30.00,SW,232,1.0,5.0,78,0.00,,BKN055,0.00,VWS V14.00,2013-02-03 08:20:00,
2013-02-03 03:30:00,26.2,20.0,30.01,West,265,4.0,9.0,77,0.00,,BKN055,0.00,VWS V14.00,2013-02-03 08:30:00,
2013-02-03 03:40:00,25.9,19.4,30.01,WSW,242,5.0,7.0,76,0.00,,BKN055,0.00,VWS V14.00,2013-02-03 08:40:00,
2013-02-03 03:50:00,25.6,18.8,30.00,WSW,256,3.0,6.0,75,0.00,,BKN055,0.00,VWS V14.00,2013-02-03 08:50:00,
2013-02-03 04:00:00,25.4,18.6,30.00,West,265,3.0,8.0,75,0.00,,BKN055,0.00,VWS V14.00,2013-02-03 09:00:00,
2013-02-03 04:10:00,25.2,18.4,30.00,West,267,4.0,8.0,75,0.00,,BKN055,0.00,VWS V14.00,2013-02-03 09:10:00,
2013-02-03 04:20:00,24.9,18.1,30.00,West,260,2.0,6.0,75,0.00,,BKN055,0.00,VWS V14.00,2013-02-03 09:20:00,
2013-02-03 04:30:00,24.4,17.6,29.99,WSW,258,0.0,6.0,75,0.00,,BKN055,0.00,VWS V14.00,2013-02-03 09:30:00,
2013-02-03 04:40:00,23.8,17.4,29.99,West,264,1.0,3.0,76,0.00,,BKN055,0.00,VWS V14.00,2013-02-03 09:40:00,
2013-02-03 04:50:00,23.4,17.3,29.99,WSW,246,0.0,4.0,77,0.00,,BKN055,0.00,VWS V14.00,2013-02-03 09:50:00,
2013-02-03 05:00:00,23.3,18.1,29.99,WSW,248,0.0,0.0,80,0.00,,BKN055,0.00,VWS V14.00,2013-02-03 10:00:00,
2013-02-03 05:10:00,23.4,18.1,29.99,WSW,250,0.0,2.0,80,0.00,,BKN055,0.00,VWS V14.00,2013-02-03 10:10:00,
2013-02-03 05:20:00,23.6,18.4,29.99,West,269,3.0,3.0,80,0.00,,BKN055,0.00,VWS V14.00,2013-02-03 10:20:00,
2013-02-03 05:30:00,23.7,18.1,29.98,WNW,287,3.0,9.0,79,0.00,,BKN055,0.00,VWS V14.00,2013-02-03 10:30:00,
2013-02-03 05:40:00,23.7,17.6,29.97,WSW,242,1.0,5.0,77,0.00,,BKN055,0.00,VWS V14.00,2013-02-03 10:40:00,
2013-02-03 05:50:00,23.7,17.9,29.98,West,262,2.0,3.0,78,0.00,,BKN055,0.00,VWS V14.00,2013-02-03 10:50:00,
2013-02-03 06:00:00,23.6,18.1,29.98,West,265,0.0,2.0,79,0.00,,BKN055,0.00,VWS V14.00,2013-02-03 11:00:00,
2013-02-03 06:10:00,23.6,18.1,29.98,West,264,0.0,2.0,79,0.00,,BKN055,0.00,VWS V14.00,2013-02-03 11:10:00,
2013-02-03 06:20:00,23.6,18.1,29.99,WSW,256,1.0,4.0,79,0.00,,BKN055,0.00,VWS V14.00,2013-02-03 11:20:00,
2013-02-03 06:30:00,23.6,17.8,29.99,SW,226,3.0,5.0,78,0.00,,BKN055,0.00,VWS V14.00,2013-02-03 11:30:00,
2013-02-03 06:40:00,23.6,17.5,29.99,West,281,5.0,12.0,77,0.00,,BKN055,0.00,VWS V14.00,2013-02-03 11:40:00,
2013-02-03 06:50:00,23.6,17.5,29.99,West,272,4.0,12.0,77,0.00,,BKN055,0.00,VWS V14.00,2013-02-03 11:50:00,
2013-02-03 07:00:00,23.6,17.8,30.00,WSW,254,0.0,8.0,78,0.00,,BKN055,0.00,VWS V14.00,2013-02-03 12:00:00,
2013-02-03 07:10:00,23.5,17.7,30.00,WSW,248,3.0,6.0,78,0.00,,BKN055,0.00,VWS V14.00,2013-02-03 12:10:00,
2013-02-03 07:20:00,23.5,17.7,30.00,West,267,3.0,11.0,78,0.00,,BKN055,0.00,VWS V14.00,2013-02-03 12:20:00,
2013-02-03 07:30:00,23.4,17.6,30.00,WSW,258,2.0,5.0,78,0.00,,BKN055,0.00,VWS V14.00,2013-02-03 12:30:00,
2013-02-03 07:40:00,23.4,17.6,30.00,WSW,242,2.0,5.0,78,0.00,,BKN055,0.00,VWS V14.00,2013-02-03 12:40:00,
2013-02-03 07:50:00,23.4,17.6,30.00,West,281,0.0,6.0,78,0.00,,BKN055,0.00,VWS V14.00,2013-02-03 12:50:00,
2013-02-03 08:00:00,23.4,17.9,30.01,West,261,3.0,5.0,79,0.00,,BKN055,0.00,VWS V14.00,2013-02-03 13:00:00,
2013-02-03 08:10:00,23.4,17.9,30.01,WSW,247,1.0,6.0,79,0.00,,BKN055,0.00,VWS V14.00,2013-02-03 13:10:00,
2013-02-03 08:20:00,23.3,17.8,30.01,WSW,254,3.0,5.0,79,0.00,,BKN055,0.00,VWS V14.00,2013-02-03 13:20:00,
2013-02-03 08:30:00,23.4,17.9,30.01,West,277,3.0,5.0,79,0.00,,BKN055,0.00,VWS V14.00,2013-02-03 13:30:00,
2013-02-03 08:40:00,23.3,17.8,30.01,West,267,0.0,5.0,79,0.00,,BKN055,0.00,VWS V14.00,2013-02-03 13:40:00,
2013-02-03 08:50:00,23.1,17.3,30.01,WNW,296,0.0,8.0,78,0.00,,BKN055,0.00,VWS V14.00,2013-02-03 13:50:00,
2013-02-03 09:00:00,22.9,17.1,30.02,SW,235,6.0,11.0,78,0.00,,BKN055,0.00,VWS V14.00,2013-02-03 14:00:00,
2013-02-03 09:10:00,22.9,17.1,30.02,WNW,287,5.0,7.0,78,0.00,,BKN055,0.00,VWS V14.00,2013-02-03 14:10:00,
2013-02-03 09:20:00,22.8,17.0,30.02,WNW,289,3.0,9.0,78,0.00,,BKN055,0.00,VWS V14.00,2013-02-03 14:20:00,
2013-02-03 09:30:00,22.7,17.2,30.02,NW,321,2.0,10.0,79,0.00,,BKN055,0.00,VWS V14.00,2013-02-03 14:30:00,
2013-02-03 09:40:00,22.9,17.4,30.02,West,273,3.0,10.0,79,0.00,,BKN055,0.00,VWS V14.00,2013-02-03 14:40:00,
2013-02-03 09:50:00,22.9,17.4,30.02,WNW,284,3.0,10.0,79,0.00,,BKN055,0.00,VWS V14.00,2013-02-03 14:50:00,
2013-02-03 10:00:00,23.1,17.9,30.01,NW,312,4.0,13.0,80,0.00,,BKN055,0.00,VWS V14.00,2013-02-03 15:00:00,
2013-02-03 10:10:00,23.3,18.1,30.02,WNW,284,3.0,11.0,80,0.00,,BKN055,0.00,VWS V14.00,2013-02-03 15:10:00,
2013-02-03 10:20:00,23.4,18.4,30.02,NW,310,3.0,11.0,81,0.00,,BKN055,0.00,VWS V14.00,2013-02-03 15:20:00,
2013-02-03 10:30:00,23.7,18.5,30.02,WNW,292,2.0,9.0,80,0.00,,BKN055,0.00,VWS V14.00,2013-02-03 15:30:00,
2013-02-03 10:40:00,23.9,18.6,30.02,WSW,247,4.0,15.0,80,0.00,,BKN055,0.00,VWS V14.00,2013-02-03 15:40:00,
2013-02-03 10:50:00,24.0,18.7,30.02,NW,309,3.0,14.0,80,0.00,,BKN055,0.00,VWS V14.00,2013-02-03 15:50:00,
2013-02-03 11:00:00,24.3,19.0,30.02,WNW,288,7.0,11.0,80,0.00,,BKN055,0.00,VWS V14.00,2013-02-03 16:00:00,
2013-02-03 11:10:00,24.3,19.0,30.02,West,271,5.0,11.0,80,0.00,,BKN055,0.00,VWS V14.00,2013-02-03 16:10:00,
2013-02-03 11:20:00,24.7,19.4,30.02,WNW,286,0.0,9.0,80,0.00,,BKN055,0.00,VWS V14.00,2013-02-03 16:20:00,
2013-02-03 11:30:00,25.3,20.0,30.01,WSW,237,0.0,6.0,80,0.00,,BKN055,0.00,VWS V14.00,2013-02-03 16:30:00,
2013-02-03 11:40:00,25.4,20.1,30.01,West,275,0.0,10.0,80,0.00,,BKN055,0.00,VWS V14.00,2013-02-03 16:40:00,
2013-02-03 11:50:00,25.8,20.5,30.02,North,355,0.0,9.0,80,0.00,,BKN055,0.00,VWS V14.00,2013-02-03 16:50:00,
2013-02-03 12:00:00,26.0,20.7,30.02,WNW,286,2.0,8.0,80,0.00,,BKN055,0.00,VWS V14.00,2013-02-03 17:00:00,
2013-02-03 12:10:00,26.2,20.9,30.02,WSW,252,0.0,12.0,80,0.00,,BKN055,0.00,VWS V14.00,2013-02-03 17:10:00,
2013-02-03 12:20:00,26.3,21.0,30.03,WSW,246,3.0,12.0,80,0.00,,BKN055,0.00,VWS V14.00,2013-02-03 17:20:00,
2013-02-03 12:30:00,26.1,20.8,30.03,West,261,7.0,16.0,80,0.00,,BKN055,0.00,VWS V14.00,2013-02-03 17:30:00,
2013-02-03 12:40:00,26.2,20.9,30.03,West,269,4.0,9.0,80,0.00,,BKN055,0.00,VWS V14.00,2013-02-03 17:40:00,
2013-02-03 12:50:00,26.3,21.0,30.03,West,269,7.0,11.0,80,0.00,,BKN055,0.00,VWS V14.00,2013-02-03 17:50:00,
2013-02-03 13:00:00,26.3,21.0,30.03,West,263,7.0,12.0,80,0.00,,BKN055,0.00,VWS V14.00,2013-02-03 18:00:00,
2013-02-03 13:10:00,26.1,21.1,30.03,WNW,298,9.0,14.0,81,0.00,,BKN055,0.00,VWS V14.00,2013-02-03 18:10:00,
2013-02-03 13:20:00,26.1,21.1,30.03,West,277,2.0,11.0,81,0.00,,BKN055,0.00,VWS V14.00,2013-02-03 18:20:00,
2013-02-03 13:30:00,26.3,21.3,30.03,West,277,3.0,8.0,81,0.00,,BKN055,0.00,VWS V14.00,2013-02-03 18:30:00,
2013-02-03 13:40:00,26.3,21.6,30.03,SSW,213,4.0,15.0,82,0.00,,BKN055,0.00,VWS V14.00,2013-02-03 18:40:00,
2013-02-03 13:50:00,26.5,22.0,30.03,WSW,240,7.0,7.0,83,0.00,,BKN055,0.00,VWS V14.00,2013-02-03 18:50:00,
2013-02-03 14:00:00,26.3,22.1,30.03,WSW,242,2.0,12.0,84,0.00,,BKN055,0.00,VWS V14.00,2013-02-03 19:00:00,
2013-02-03 14:10:00,26.4,22.5,30.03,West,265,2.0,10.0,85,0.00,,BKN055,0.00,VWS V14.00,2013-02-03 19:10:00,
2013-02-03 14:20:00,26.5,22.6,30.05,SW,225,0.0,10.0,85,0.00,,BKN055,0.00,VWS V14.00,2013-02-03 19:20:00,
2013-02-03 14:30:00,26.5,22.6,30.05,West,261,4.0,12.0,85,0.00,,BKN055,0.00,VWS V14.00,2013-02-03 19:30:00,
2013-02-03 14:40:00,26.5,22.9,30.05,WSW,244,4.0,10.0,86,0.00,,BKN055,0.00,VWS V14.00,2013-02-03 19:40:00,
2013-02-03 14:50:00,26.6,23.0,30.06,West,271,4.0,12.0,86,0.00,,BKN055,0.00,VWS V14.00,2013-02-03 19:50:00,
2013-02-03 15:00:00,26.6,23.0,30.07,WNW,283,6.0,13.0,86,0.00,,BKN055,0.00,VWS V14.00,2013-02-03 20:00:00,
2013-02-03 15:10:00,26.6,23.3,30.07,West,263,3.0,10.0,87,0.00,,BKN055,0.00,VWS V14.00,2013-02-03 20:10:00,
2013-02-03 15:20:00,26.6,23.0,30.08,West,262,5.0,16.0,86,0.00,,BKN055,0.00,VWS V14.00,2013-02-03 20:20:00,
2013-02-03 15:30:00,26.7,23.1,30.08,West,272,2.0,13.0,86,0.00,,BKN055,0.00,VWS V14.00,2013-02-03 20:30:00,
2013-02-03 15:40:00,26.7,23.4,30.08,West,265,0.0,4.0,87,0.00,,BKN055,0.00,VWS V14.00,2013-02-03 20:40:00,
2013-02-03 15:50:00,26.8,23.2,30.08,West,281,11.0,11.0,86,0.00,,BKN055,0.00,VWS V14.00,2013-02-03 20:50:00,
2013-02-03 16:00:00,26.9,23.3,30.08,West,269,2.0,11.0,86,0.00,,BKN055,0.00,VWS V14.00,2013-02-03 21:00:00,
2013-02-03 16:10:00,27.1,23.5,30.09,WSW,254,7.0,10.0,86,0.00,,BKN055,0.00,VWS V14.00,2013-02-03 21:10:00,
2013-02-03 16:20:00,27.3,23.4,30.09,West,265,0.0,15.0,85,0.00,,BKN055,0.00,VWS V14.00,2013-02-03 21:20:00,
2013-02-03 16:30:00,27.4,23.2,30.09,WSW,240,7.0,11.0,84,0.00,,BKN055,0.00,VWS V14.00,2013-02-03 21:30:00,
2013-02-03 16:40:00,27.5,23.0,30.09,West,263,5.0,12.0,83,0.00,,BKN055,0.00,VWS V14.00,2013-02-03 21:40:00,
2013-02-03 16:50:00,27.6,23.4,30.10,NW,304,5.0,13.0,84,0.00,,BKN055,0.00,VWS V14.00,2013-02-03 21:50:00,
2013-02-03 17:00:00,27.7,23.2,30.10,SW,234,6.0,9.0,83,0.00,,BKN055,0.00,VWS V14.00,2013-02-03 22:00:00,
2013-02-03 17:10:00,27.7,23.5,30.10,WSW,255,0.0,10.0,84,0.00,,BKN055,0.00,VWS V14.00,2013-02-03 22:10:00,
2013-02-03 17:20:00,27.7,23.5,30.10,West,275,2.0,5.0,84,0.00,,BKN055,0.00,VWS V14.00,2013-02-03 22:20:00,
2013-02-03 17:30:00,27.7,23.2,30.10,West,261,0.0,6.0,83,0.00,,BKN055,0.00,VWS V14.00,2013-02-03 22:30:00,
2013-02-03 17:40:00,27.8,23.3,30.11,West,263,0.0,4.0,83,0.00,,BKN055,0.00,VWS V14.00,2013-02-03 22:40:00,
2013-02-03 17:50:00,27.8,23.3,30.11,WSW,251,4.0,9.0,83,0.00,,BKN055,0.00,VWS V14.00,2013-02-03 22:50:00,
2013-02-03 18:00:00,27.5,23.3,30.11,WSW,257,0.0,6.0,84,0.00,,BKN055,0.00,VWS V14.00,2013-02-03 23:00:00,
2013-02-03 18:10:00,27.5,23.6,30.11,West,275,4.0,5.0,85,0.00,,BKN055,0.00,VWS V14.00,2013-02-03 23:10:00,
2013-02-03 18:20:00,27.6,23.7,30.12,West,261,0.0,7.0,85,0.00,,BKN055,0.00,VWS V14.00,2013-02-03 23:20:00,
2013-02-03 18:30:00,27.6,23.7,30.12,West,268,1.0,4.0,85,0.00,,BKN055,0.00,VWS V14.00,2013-02-03 23:30:00,
2013-02-03 18:40:00,27.6,23.7,30.13,WSW,244,4.0,7.0,85,0.00,,BKN055,0.00,VWS V14.00,2013-02-03 23:40:00,
2013-02-03 18:50:00,27.7,23.5,30.13,WSW,240,3.0,7.0,84,0.00,,BKN055,0.00,VWS V14.00,2013-02-03 23:50:00,
2013-02-03 19:00:00,27.8,23.6,30.14,West,265,3.0,10.0,84,0.00,,BKN055,0.00,VWS V14.00,2013-02-04 00:00:00,
2013-02-03 19:10:00,27.6,23.7,30.14,NNW,329,0.0,5.0,85,0.00,,BKN055,0.00,VWS V14.00,2013-02-04 00:10:00,
2013-02-03 19:20:00,27.5,23.9,30.14,WSW,242,2.0,5.0,86,0.00,,BKN055,0.00,VWS V14.00,2013-02-04 00:20:00,
2013-02-03 19:30:00,27.4,23.8,30.14,NW,319,0.0,8.0,86,0.00,,BKN055,0.00,VWS V14.00,2013-02-04 00:30:00,
2013-02-03 19:40:00,27.4,23.8,30.15,WSW,246,0.0,3.0,86,0.00,,BKN055,0.00,VWS V14.00,2013-02-04 00:40:00,
2013-02-03 19:50:00,27.4,23.5,30.15,West,275,3.0,5.0,85,0.00,,BKN055,0.00,VWS V14.00,2013-02-04 00:50:00,
2013-02-03 20:00:00,27.1,23.2,30.15,West,273,0.0,6.0,85,0.00,,BKN055,0.00,VWS V14.00,2013-02-04 01:00:00,
2013-02-03 20:10:00,27.0,23.1,30.15,WSW,238,0.0,4.0,85,0.00,,BKN055,0.00,VWS V14.00,2013-02-04 01:10:00,
2013-02-03 20:20:00,27.1,23.2,30.15,West,261,0.0,7.0,85,0.00,,BKN055,0.00,VWS V14.00,2013-02-04 01:20:00,
2013-02-03 20:30:00,26.8,22.6,30.15,WSW,245,3.0,5.0,84,0.00,,BKN055,0.00,VWS V14.00,2013-02-04 01:30:00,
2013-02-03 20:40:00,26.7,22.5,30.15,West,269,4.0,10.0,84,0.00,,BKN055,0.00,VWS V14.00,2013-02-04 01:40:00,
2013-02-03 20:50:00,26.7,22.5,30.16,WSW,256,0.0,6.0,84,0.00,,BKN055,0.00,VWS V14.00,2013-02-04 01:50:00,
2013-02-03 21:00:00,26.6,21.9,30.16,WSW,242,3.0,7.0,82,0.00,,BKN055,0.00,VWS V14.00,2013-02-04 02:00:00,
2013-02-03 21:10:00,26.2,21.5,30.16,SW,218,3.0,4.0,82,0.00,,BKN055,0.00,VWS V14.00,2013-02-04 02:10:00,
2013-02-03 21:20:00,25.8,21.4,30.16,WSW,257,0.0,4.0,83,0.00,,BKN055,0.00,VWS V14.00,2013-02-04 02:20:00,
2013-02-03 21:30:00,25.1,20.7,30.16,West,271,0.0,4.0,83,0.00,,BKN055,0.00,VWS V14.00,2013-02-04 02:30:00,
2013-02-03 21:40:00,24.3,20.7,30.16,West,271,0.0,0.0,86,0.00,,BKN055,0.00,VWS V14.00,2013-02-04 02:40:00,
2013-02-03 21:50:00,23.6,20.3,30.15,West,271,0.0,0.0,87,0.00,,BKN055,0.00,VWS V14.00,2013-02-04 02:50:00,
2013-02-03 22:00:00,22.7,19.7,30.15,West,271,0.0,0.0,88,0.00,,BKN055,0.00,VWS V14.00,2013-02-04 03:00:00,
2013-02-03 22:10:00,21.8,19.3,30.15,West,271,0.0,0.0,90,0.00,,BKN055,0.00,VWS V14.00,2013-02-04 03:10:00,
2013-02-03 22:20:00,21.6,19.4,30.15,West,271,0.0,0.0,91,0.00,,BKN055,0.00,VWS V14.00,2013-02-04 03:20:00,
2013-02-03 22:30:00,21.0,18.8,30.15,West,271,0.0,2.0,91,0.00,,BKN055,0.00,VWS V14.00,2013-02-04 03:30:00,
2013-02-03 22:40:00,20.3,18.4,30.15,West,272,0.0,0.0,92,0.00,,BKN055,0.00,VWS V14.00,2013-02-04 03:40:00,
2013-02-03 22:50:00,19.9,18.0,30.16,West,279,0.0,0.0,92,0.00,,BKN055,0.00,VWS V14.00,2013-02-04 03:50:00,
2013-02-03 23:00:00,19.5,17.6,30.16,NW,306,2.0,3.0,92,0.00,,BKN055,0.00,VWS V14.00,2013-02-04 04:00:00,
2013-02-03 23:10:00,19.0,17.1,30.16,NW,306,0.0,2.0,92,0.00,,BKN055,0.00,VWS V14.00,2013-02-04 04:10:00,
2013-02-03 23:20:00,18.2,16.3,30.15,NW,306,0.0,0.0,92,0.00,,BKN055,0.00,VWS V14.00,2013-02-04 04:20:00,
2013-02-03 23:30:00,18.5,16.8,30.15,NW,306,0.0,0.0,93,0.00,,BKN055,0.00,VWS V14.00,2013-02-04 04:30:00,
2013-02-03 23:40:00,17.7,16.0,30.15,NW,306,2.0,2.0,93,0.00,,BKN055,0.00,VWS V14.00,2013-02-04 04:40:00,
2013-02-03 23:50:00,16.7,14.8,30.15,NW,310,0.0,2.0,92,0.00,,BKN055,0.00,VWS V14.00,2013-02-04 04:50:00,